Airfield :
LOGIN :

Register | Disclaimer

   EN    FR    IT 

 










Legend :    VFR   Marginal VFR   IFR   Intensive IFR   Very Intensive IFR
Visi :
Ceiling :
>= 8 km
>= 3000ft
5 to 8 km
1000 to 3000 ft
1500m to 5 km
500 to 1000 ft
800 to 1500m
200 to 500 ft
< 800m
< 200 ft
Symbols :   Thunderstorms  Fog  Heavy snow  Heavy precipitations  Wind > 20 kt
SIGMETs :     Misc.  Thunderstorms  Icing  Turbulence  Mountain Waves  Volcanic Ashes






- Airport Elevation : 407 ft


EGDM - MoD Boscombe Down Amesbury

CURRENT METAR :
  • 041320Z 21012KT 9999 FEW013 BKN023 16/13 Q1016 TEMPO SCT012 RMK WHT TEMPO GRN

EXPIRED METARs :
  • 041250Z 21010KT 9999 SCT012 BKN030 16/14 Q1016 TEMPO SCT015 RMK GRN TEMPO WHT
  • 041220Z 23010KT 9999 -DZ SCT011 BKN033 16/14 Q1016 TEMPO 6000 RMK GRN TEMPO GRN
  • 041150Z 22012KT 9000 -DZ FEW008 BKN012 OVC032 15/14 Q1017 TEMPO 6000 RMK GRN TEMPO GRN
  • 041120Z 22010KT 9999 SCT008 BKN034 16/15 Q1016 TEMPO FEW008 RMK GRN TEMPO BLU
  • 041056Z 21011KT 4000 -RADZ FEW005 OVC029 15/15 Q1017 BECMG 9999 NSW RMK GRN BECMG GRN
  • 041020Z 21012KT 9999 6000S -RADZ OVC007 16/14 Q1017 BECMG 9999 NSW RMK GRN BECMG GRN

TAF AMD TAF EGDM
Valid from the 04 at 11:00 until the 04 at 18:00 UTC


041116Z 0411/0418 22013KT 9999 BKN028
TEMPO 0411/0412 4000 -RADZ SCT005
TEMPO 0412/0418 SCT022



MET'MAP, your aeronautical weather chart ! - Copyright ORBIFLY December 2007 - Disclaimer

ORBIFLY MET'MAP TEAM :

Programming & Development : Alexandra Zaïnal
Original concept : Baudouin d'Aumeries
Technical & hardware support : Manuel Goepfert
Assistance : Marc-Olivier Méhu




SOURCES & CREDITS :

   NOAA